Time;durP1;ratioP1;P1;durP2;ratioP2;P2;SDS_P1;SDS_P2;PMS_P1;PMS_P2;Temp;Humidity;BMP_temperature;BMP_pressure;BME280_temperature;BME280_humidity;BME280_pressure;Samples;Min_cycle;Max_cycle;Signal;HPM_P1;HPM_P2
2022/01/21 00:00:56;;;;;;;17.63;2.80;;;3.40;88.00;;;;;;5123417;27;20046;-79
2022/01/21 00:03:22;;;;;;;19.92;3.72;;;3.50;88.20;;;;;;5140418;27;20046;-78
2022/01/21 00:05:47;;;;;;;19.35;3.45;;;3.60;88.10;;;;;;5157750;27;20098;-78
2022/01/21 00:08:13;;;;;;;17.85;3.03;;;3.60;88.20;;;;;;5139747;27;20470;-79
2022/01/21 00:10:39;;;;;;;7.85;1.90;;;3.70;88.90;;;;;;5157415;27;20038;-78
2022/01/21 00:13:14;;;;;;;10.85;2.90;;;3.60;89.10;;;;;;5140163;27;20079;-79
2022/01/21 00:15:40;;;;;;;13.77;2.70;;;3.50;89.00;;;;;;5157514;27;20086;-79
2022/01/21 00:18:07;;;;;;;6.72;1.77;;;3.40;89.10;;;;;;5140090;27;20489;-79
2022/01/21 00:31:30;;;;;;;13.70;2.20;;;3.20;89.50;;;;;;5157081;27;20056;-79
2022/01/21 00:33:55;;;;;;;10.70;2.25;;;3.10;89.60;;;;;;5139754;27;20042;-78
2022/01/21 00:36:21;;;;;;;11.82;2.22;;;3.10;89.60;;;;;;5156884;27;20121;-79
2022/01/21 00:38:47;;;;;;;11.18;1.90;;;3.10;89.70;;;;;;5157252;27;20390;-79
2022/01/21 00:41:18;;;;;;;13.20;2.45;;;3.10;89.60;;;;;;5156978;27;20500;-79
2022/01/21 00:43:44;;;;;;;11.07;1.92;;;3.10;89.60;;;;;;5157115;27;20394;-79
2022/01/21 00:46:13;;;;;;;16.35;3.53;;;3.10;89.70;;;;;;5156736;27;20050;-79
2022/01/21 00:48:40;;;;;;;10.90;1.90;;;3.10;89.90;;;;;;5156766;27;20042;-78
2022/01/21 00:51:06;;;;;;;19.00;2.58;;;3.10;89.90;;;;;;5139674;27;20037;-79
2022/01/21 00:53:32;;;;;;;18.70;5.25;;;3.10;89.90;;;;;;5139642;27;20034;-79
2022/01/21 00:55:58;;;;;;;11.68;2.10;;;3.10;90.00;;;;;;5122782;27;20077;-79
2022/01/21 00:58:24;;;;;;;12.88;2.00;;;3.10;90.10;;;;;;5157269;27;20454;-79
2022/01/21 01:00:50;;;;;;;15.15;3.45;;;3.10;90.20;;;;;;5139971;27;20041;-79
2022/01/21 01:03:19;;;;;;;12.45;2.10;;;3.20;90.10;;;;;;5157165;27;20042;-79
2022/01/21 01:05:46;;;;;;;11.77;1.80;;;3.30;90.10;;;;;;5157751;27;20362;-79
2022/01/21 01:08:12;;;;;;;9.93;1.90;;;3.30;90.20;;;;;;5157290;27;20038;-79
2022/01/21 01:10:59;;;;;;;13.32;2.40;;;3.30;90.20;;;;;;5157271;27;20061;-79
2022/01/21 01:21:42;;;;;;;13.23;2.25;;;3.30;90.40;;;;;;5145889;27;20144;-79
2022/01/21 01:29:19;;;;;;;11.02;2.33;;;3.40;89.80;;;;;;5161236;27;20071;-79
2022/01/21 01:31:45;;;;;;;11.40;1.90;;;3.40;89.80;;;;;;5161104;27;20076;-79
2022/01/21 01:34:12;;;;;;;9.73;2.20;;;3.40;89.70;;;;;;5161127;27;20050;-80
2022/01/21 01:36:39;;;;;;;14.68;2.90;;;3.40;89.80;;;;;;5161093;27;20034;-78
2022/01/21 01:41:39;;;;;;;11.40;2.88;;;3.30;89.90;;;;;;5160586;27;20078;-80
2022/01/21 01:49:37;;;;;;;10.77;2.50;;;3.30;90.10;;;;;;5161276;27;20049;-80
2022/01/21 01:52:09;;;;;;;10.57;2.03;;;3.30;90.20;;;;;;5161234;27;20091;-79
2022/01/21 01:54:39;;;;;;;12.00;2.10;;;3.30;90.30;;;;;;5160902;27;20493;-79
2022/01/21 01:57:05;;;;;;;12.45;3.03;;;3.30;90.40;;;;;;5161157;27;20030;-79
2022/01/21 01:59:31;;;;;;;13.63;2.25;;;3.30;90.50;;;;;;5161350;27;20066;-80
2022/01/21 02:01:58;;;;;;;13.05;3.00;;;3.30;90.40;;;;;;5144032;27;20117;-79
2022/01/21 02:04:25;;;;;;;9.73;2.38;;;3.30;90.40;;;;;;5161209;27;20485;-80
2022/01/21 02:06:51;;;;;;;15.88;2.38;;;3.30;90.40;;;;;;5161053;27;20401;-81
2022/01/21 02:09:17;;;;;;;11.70;2.20;;;3.30;90.60;;;;;;5160561;27;20034;-80
2022/01/21 02:11:44;;;;;;;9.35;1.75;;;3.20;90.70;;;;;;5126155;27;20041;-81
2022/01/21 02:14:14;;;;;;;11.82;2.40;;;3.30;90.80;;;;;;5160829;27;20046;-81
2022/01/21 02:17:06;;;;;;;9.70;2.58;;;3.30;90.80;;;;;;5160417;27;20046;-81
2022/01/21 02:22:21;;;;;;;10.23;2.80;;;3.40;90.90;;;;;;5160329;27;20513;-81
2022/01/21 02:24:57;;;;;;;11.73;1.60;;;3.50;90.80;;;;;;5142561;27;20041;-80
2022/01/21 02:27:23;;;;;;;14.20;3.20;;;3.60;90.70;;;;;;5142714;27;20075;-80
2022/01/21 02:29:52;;;;;;;12.10;1.55;;;3.60;90.40;;;;;;5142839;27;20073;-80
2022/01/21 02:32:19;;;;;;;9.85;1.88;;;3.70;90.20;;;;;;5159507;27;20046;-80
2022/01/21 02:34:46;;;;;;;7.78;1.30;;;3.60;90.20;;;;;;5142447;27;20048;-80
2022/01/21 02:37:14;;;;;;;5.05;1.20;;;3.60;90.10;;;;;;5142566;27;20053;-81
2022/01/21 02:39:39;;;;;;;4.22;1.42;;;3.60;90.00;;;;;;5142719;27;20045;-80
2022/01/21 02:42:06;;;;;;;5.13;1.25;;;3.60;89.80;;;;;;5125317;27;20034;-80
2022/01/21 02:44:31;;;;;;;14.07;2.17;;;3.60;89.70;;;;;;5142173;27;20039;-80
2022/01/21 02:47:01;;;;;;;7.93;1.38;;;3.60;89.50;;;;;;5159635;27;20053;-80
2022/01/21 02:49:26;;;;;;;8.20;1.40;;;3.50;89.60;;;;;;5159543;27;20486;-80
2022/01/21 02:51:54;;;;;;;6.03;1.30;;;3.40;89.60;;;;;;5142309;27;20085;-80
2022/01/21 02:54:20;;;;;;;9.25;1.23;;;3.40;89.80;;;;;;5125567;27;20102;-80
2022/01/21 02:56:46;;;;;;;8.35;1.90;;;3.40;89.90;;;;;;5159615;27;20485;-80
2022/01/21 02:59:11;;;;;;;7.53;2.75;;;3.30;89.90;;;;;;5159379;27;20580;-80
2022/01/21 03:01:39;;;;;;;7.20;1.70;;;3.30;89.90;;;;;;5159309;27;20040;-80
2022/01/21 03:04:06;;;;;;;13.32;3.53;;;3.20;90.10;;;;;;5142289;27;20123;-80
2022/01/21 03:06:33;;;;;;;6.57;0.98;;;3.20;90.10;;;;;;5141922;27;20034;-80
2022/01/21 03:08:59;;;;;;;17.15;5.47;;;3.20;90.10;;;;;;5159475;27;20092;-80
2022/01/21 03:11:27;;;;;;;7.28;1.05;;;3.10;90.10;;;;;;5141903;27;20076;-80
2022/01/21 03:13:54;;;;;;;7.85;1.30;;;3.10;90.20;;;;;;5141878;27;20050;-80
2022/01/21 03:16:20;;;;;;;11.38;1.63;;;3.10;90.30;;;;;;5141867;27;20037;-80
2022/01/21 03:18:46;;;;;;;9.55;1.63;;;3.10;90.10;;;;;;5142161;27;20129;-79
2022/01/21 03:21:16;;;;;;;10.50;1.90;;;3.10;90.30;;;;;;5124468;27;20599;-80
2022/01/21 03:23:50;;;;;;;15.40;2.28;;;3.10;90.40;;;;;;5158810;27;20120;-81
2022/01/21 03:26:17;;;;;;;;;;;3.10;90.50;;;;;;5159480;27;20479;-81
2022/01/21 03:28:45;;;;;;;11.25;2.42;;;3.10;90.50;;;;;;5158776;27;19915;-80
2022/01/21 03:31:11;;;;;;;10.48;1.83;;;3.10;90.60;;;;;;5159081;27;20382;-80
2022/01/21 03:33:37;;;;;;;10.70;2.20;;;3.10;90.60;;;;;;5159159;27;20641;-80
2022/01/21 03:36:03;;;;;;;11.07;1.55;;;3.10;91.00;;;;;;5158617;27;20151;-80
2022/01/21 03:38:29;;;;;;;9.43;1.80;;;3.10;91.00;;;;;;5158578;27;20037;-80
2022/01/21 03:40:55;;;;;;;10.70;1.58;;;3.10;91.00;;;;;;5124598;27;20049;-80
2022/01/21 03:43:23;;;;;;;19.33;2.70;;;3.10;91.20;;;;;;5157660;27;20034;-80
2022/01/21 03:45:52;;;;;;;19.80;3.70;;;3.10;91.20;;;;;;5158246;27;20046;-81
2022/01/21 03:48:19;;;;;;;9.88;1.92;;;3.10;91.30;;;;;;5158041;27;20478;-80
2022/01/21 03:50:45;;;;;;;14.48;2.95;;;3.10;91.40;;;;;;5158753;27;20442;-80
2022/01/21 03:53:11;;;;;;;12.52;2.15;;;3.10;91.30;;;;;;5158210;27;20034;-81
2022/01/21 03:55:38;;;;;;;9.43;1.60;;;3.10;91.40;;;;;;5141042;27;20034;-81
2022/01/21 03:58:06;;;;;;;16.02;3.50;;;3.10;91.50;;;;;;5158498;27;20042;-81
2022/01/21 04:00:41;;;;;;;12.38;2.25;;;3.10;91.40;;;;;;5159413;27;20038;-81
2022/01/21 04:03:06;;;;;;;;;;;3.10;91.40;;;;;;5141503;27;20117;-80
2022/01/21 04:05:32;;;;;;;12.70;2.25;;;3.10;91.40;;;;;;5158391;27;20001;-80
2022/01/21 04:07:58;;;;;;;10.25;1.95;;;3.10;91.40;;;;;;5141389;27;20060;-80
2022/01/21 04:10:24;;;;;;;20.40;4.93;;;3.10;91.40;;;;;;5158070;27;20779;-80
2022/01/21 04:12:50;;;;;;;18.40;2.70;;;3.20;91.40;;;;;;5157692;27;20048;-80
2022/01/21 04:15:16;;;;;;;16.70;2.13;;;3.20;91.30;;;;;;5157936;27;20473;-80
2022/01/21 04:17:43;;;;;;;10.27;1.63;;;3.20;91.30;;;;;;5157893;27;20038;-80
2022/01/21 04:20:12;;;;;;;6.97;2.17;;;3.30;91.00;;;;;;5157615;27;20038;-80
2022/01/21 04:22:38;;;;;;;8.45;1.30;;;3.30;90.70;;;;;;5157704;27;20083;-79
2022/01/21 04:25:05;;;;;;;14.25;2.40;;;3.40;90.60;;;;;;5157434;27;20074;-81
2022/01/21 04:27:32;;;;;;;11.80;1.80;;;3.40;90.40;;;;;;5157246;27;20075;-80
2022/01/21 04:29:58;;;;;;;6.78;1.20;;;3.50;90.10;;;;;;5157636;27;20038;-80
2022/01/21 04:32:23;;;;;;;8.63;1.65;;;3.50;90.20;;;;;;5157737;27;20045;-81
2022/01/21 04:34:49;;;;;;;10.02;2.05;;;3.50;90.30;;;;;;5158068;27;20069;-80
2022/01/21 04:37:16;;;;;;;7.63;1.52;;;3.50;90.30;;;;;;5157631;27;20477;-80
2022/01/21 04:39:50;;;;;;;12.52;1.55;;;3.50;90.50;;;;;;5157708;27;20057;-80
2022/01/21 04:47:39;;;;;;;10.65;1.52;;;3.40;90.80;;;;;;5157566;27;20049;-80
2022/01/21 04:50:10;;;;;;;13.00;1.77;;;3.40;90.90;;;;;;5157621;27;20042;-80
2022/01/21 04:52:36;;;;;;;11.35;3.28;;;3.30;91.00;;;;;;5141688;27;20030;-81
2022/01/21 04:55:03;;;;;;;13.15;2.53;;;3.30;91.10;;;;;;5140609;27;20409;-80
2022/01/21 04:57:29;;;;;;;12.82;3.03;;;3.20;91.10;;;;;;5141047;27;20042;-80
2022/01/21 04:59:55;;;;;;;7.53;1.60;;;3.20;91.40;;;;;;5157941;27;20048;-81
2022/01/21 05:02:22;;;;;;;12.00;1.58;;;3.20;91.50;;;;;;5158084;27;20471;-80
2022/01/21 05:04:47;;;;;;;8.98;1.77;;;3.20;91.50;;;;;;5157641;27;20371;-81
2022/01/21 05:07:18;;;;;;;8.15;1.52;;;3.10;91.60;;;;;;5157423;27;20045;-80
2022/01/21 05:09:44;;;;;;;6.22;1.40;;;3.20;91.70;;;;;;5140811;27;20049;-80
2022/01/21 05:12:12;;;;;;;9.70;1.50;;;3.10;91.70;;;;;;5140072;27;20026;-80
2022/01/21 05:17:12;;;;;;;7.75;1.42;;;3.10;91.70;;;;;;5157662;27;20038;-80
2022/01/21 05:19:37;;;;;;;10.05;1.40;;;3.10;91.60;;;;;;5140228;27;20435;-80
2022/01/21 05:22:04;;;;;;;6.70;1.52;;;3.10;91.70;;;;;;5139823;27;20038;-80
2022/01/21 05:24:30;;;;;;;8.15;2.40;;;3.20;91.40;;;;;;5139710;27;20125;-81
2022/01/21 05:27:01;;;;;;;9.30;1.15;;;3.30;91.30;;;;;;5140022;27;20185;-80
2022/01/21 05:29:29;;;;;;;8.63;1.35;;;3.40;91.20;;;;;;5140845;27;20117;-80
2022/01/21 05:31:55;;;;;;;10.18;2.25;;;3.40;91.20;;;;;;5156876;27;20492;-80
2022/01/21 05:34:21;;;;;;;6.55;1.25;;;3.40;91.40;;;;;;5139690;27;20042;-80
2022/01/21 05:36:47;;;;;;;5.95;1.20;;;3.40;91.40;;;;;;5139768;27;20154;-80
2022/01/21 05:39:17;;;;;;;11.63;2.13;;;3.40;91.40;;;;;;5140019;27;20042;-81
2022/01/21 05:41:45;;;;;;;10.38;1.60;;;3.40;91.50;;;;;;5123109;27;20376;-80
2022/01/21 05:46:22;;;;;;;7.40;1.92;;;3.40;91.40;;;;;;5156817;27;20038;-81
2022/01/21 05:46:57;;;;;;;4.40;0.98;;;3.40;91.40;;;;;;5156662;27;20052;-80
2022/01/21 05:49:25;;;;;;;12.30;1.90;;;3.50;91.20;;;;;;5157269;27;20081;-81
2022/01/21 05:51:53;;;;;;;10.55;2.53;;;3.50;91.20;;;;;;5157030;27;20073;-80
2022/01/21 05:54:24;;;;;;;9.45;3.10;;;3.50;91.00;;;;;;5157181;27;20458;-80
2022/01/21 05:56:50;;;;;;;13.52;1.92;;;3.50;91.00;;;;;;5140314;27;20038;-78
2022/01/21 05:59:16;;;;;;;12.15;2.42;;;3.40;91.00;;;;;;5139541;27;20452;-78
2022/01/21 06:01:42;;;;;;;7.88;1.73;;;3.50;91.10;;;;;;5122494;27;20050;-79
2022/01/21 06:04:09;;;;;;;9.65;1.90;;;3.40;91.10;;;;;;5156708;27;20034;-79
2022/01/21 06:06:35;;;;;;;8.65;1.63;;;3.50;91.10;;;;;;5157673;27;20099;-78
2022/01/21 06:09:02;;;;;;;9.23;1.63;;;3.40;91.20;;;;;;5160584;27;20049;-79
2022/01/21 06:11:28;;;;;;;15.00;2.10;;;3.40;91.10;;;;;;5160433;27;20095;-79
2022/01/21 06:13:54;;;;;;;9.98;1.80;;;3.40;91.20;;;;;;5125999;27;20038;-80
2022/01/21 06:16:20;;;;;;;8.00;1.73;;;3.40;91.20;;;;;;5160880;27;20050;-79
2022/01/21 06:18:46;;;;;;;7.80;1.48;;;3.40;91.10;;;;;;5143309;27;20034;-79
2022/01/21 06:21:12;;;;;;;10.75;1.70;;;3.30;91.00;;;;;;5160189;27;20034;-83
2022/01/21 06:23:38;;;;;;;13.60;1.88;;;3.30;90.90;;;;;;5125724;27;20034;-83
2022/01/21 06:26:04;;;;;;;19.30;2.47;;;3.30;91.00;;;;;;5143043;27;20041;-82
2022/01/21 06:28:30;;;;;;;11.15;1.92;;;3.30;91.10;;;;;;5160858;27;20042;-80
2022/01/21 06:30:56;;;;;;;16.13;2.67;;;3.20;91.10;;;;;;5159881;27;20057;-80
2022/01/21 06:33:22;;;;;;;16.15;2.33;;;3.10;91.20;;;;;;5160230;27;20030;-80
2022/01/21 06:35:50;;;;;;;17.95;2.35;;;3.10;91.30;;;;;;5142538;27;20042;-80
2022/01/21 06:38:17;;;;;;;14.70;1.98;;;3.10;91.50;;;;;;5159804;27;20457;-80
2022/01/21 06:40:43;;;;;;;15.40;3.42;;;3.10;91.40;;;;;;5159212;27;20676;-80
2022/01/21 06:43:09;;;;;;;21.13;3.28;;;3.10;91.50;;;;;;5159754;27;20212;-80
2022/01/21 06:45:35;;;;;;;11.05;1.90;;;3.00;91.50;;;;;;5142103;27;20050;-80
2022/01/21 06:48:02;;;;;;;12.10;2.20;;;3.00;91.50;;;;;;5159997;27;20098;-81
2022/01/21 06:50:30;;;;;;;20.08;3.20;;;3.00;91.60;;;;;;5159691;27;20038;-81
2022/01/21 06:52:56;;;;;;;14.88;2.70;;;2.90;91.70;;;;;;5159499;27;20045;-80
2022/01/21 06:55:22;;;;;;;11.93;3.05;;;2.80;91.70;;;;;;5159391;27;20030;-79
2022/01/21 06:57:48;;;;;;;13.32;3.28;;;2.90;91.80;;;;;;5142182;27;20126;-79
2022/01/21 07:00:18;;;;;;;14.77;3.42;;;2.80;92.00;;;;;;5141811;27;20042;-80
2022/01/21 07:02:45;;;;;;;12.35;2.40;;;2.90;92.10;;;;;;5141705;27;20034;-79
2022/01/21 07:05:11;;;;;;;18.08;3.60;;;2.90;92.10;;;;;;5158886;27;20123;-79
2022/01/21 07:07:37;;;;;;;22.15;2.38;;;3.00;92.20;;;;;;5158805;27;20034;-80
2022/01/21 07:10:05;;;;;;;21.48;3.72;;;3.00;92.20;;;;;;5158648;27;20034;-79
2022/01/21 07:12:35;;;;;;;12.55;2.33;;;3.10;92.20;;;;;;5158744;27;20049;-80
2022/01/21 07:15:01;;;;;;;19.15;3.10;;;3.10;92.10;;;;;;5158844;27;20046;-80
2022/01/21 07:17:26;;;;;;;19.77;2.83;;;3.10;92.10;;;;;;5140936;27;20436;-79
2022/01/21 07:19:52;;;;;;;10.05;2.42;;;3.10;92.20;;;;;;5140556;27;20397;-80
2022/01/21 07:22:18;;;;;;;20.17;3.60;;;3.10;92.20;;;;;;5158447;27;20411;-81
2022/01/21 07:24:44;;;;;;;18.23;2.58;;;3.10;92.30;;;;;;5158391;27;20078;-82
2022/01/21 07:27:09;;;;;;;11.73;2.45;;;3.10;92.40;;;;;;5141049;27;20038;-81
2022/01/21 07:29:35;;;;;;;15.95;3.67;;;3.10;92.40;;;;;;5140785;27;20034;-80
2022/01/21 07:32:02;;;;;;;11.48;2.63;;;3.10;92.40;;;;;;5140350;27;20026;-80
2022/01/21 07:34:27;;;;;;;16.20;2.83;;;3.10;92.40;;;;;;5156846;27;20073;-80
2022/01/21 07:36:54;;;;;;;13.85;3.60;;;3.10;92.60;;;;;;5140482;27;20045;-81
2022/01/21 07:39:20;;;;;;;21.02;3.22;;;3.00;92.60;;;;;;5140338;27;20081;-80
2022/01/21 07:41:45;;;;;;;18.60;3.85;;;3.00;92.60;;;;;;5157769;27;20077;-80
2022/01/21 07:44:12;;;;;;;20.77;4.57;;;3.00;92.70;;;;;;5158047;27;20502;-81
2022/01/21 07:46:40;;;;;;;18.80;6.60;;;3.00;92.60;;;;;;5157485;27;20137;-80
2022/01/21 07:49:06;;;;;;;19.63;10.15;;;3.00;92.50;;;;;;5157197;27;20056;-80
2022/01/21 07:51:32;;;;;;;27.77;14.07;;;3.00;92.50;;;;;;5157607;27;20126;-80
2022/01/21 07:54:00;;;;;;;19.27;8.32;;;3.00;92.60;;;;;;5157597;27;20478;-80
2022/01/21 07:56:26;;;;;;;18.90;3.75;;;3.00;92.60;;;;;;5157786;27;20038;-79
2022/01/21 07:58:52;;;;;;;17.27;5.25;;;3.00;92.70;;;;;;5140502;27;20034;-80
2022/01/21 08:01:18;;;;;;;20.05;3.63;;;3.10;92.80;;;;;;5157590;27;20045;-80
2022/01/21 08:03:44;;;;;;;14.80;2.78;;;3.10;92.90;;;;;;5157432;27;20054;-80
2022/01/21 08:06:10;;;;;;;14.75;2.95;;;3.20;93.10;;;;;;5157552;27;20041;-80
2022/01/21 08:08:36;;;;;;;14.18;4.85;;;3.30;93.10;;;;;;5157742;27;20030;-80
2022/01/21 08:11:02;;;;;;;18.50;3.10;;;3.40;93.20;;;;;;5157103;27;20122;-80
2022/01/21 08:13:28;;;;;;;15.95;3.80;;;3.40;93.30;;;;;;5157611;27;20116;-79
2022/01/21 08:15:55;;;;;;;18.58;5.38;;;3.50;93.40;;;;;;5157133;27;20035;-79
2022/01/21 08:18:22;;;;;;;20.90;3.38;;;3.50;93.50;;;;;;5157343;27;20038;-79
2022/01/21 08:20:48;;;;;;;15.85;3.65;;;3.60;93.50;;;;;;5157203;27;20038;-79
2022/01/21 08:23:14;;;;;;;24.50;3.60;;;3.60;93.60;;;;;;5140278;27;20034;-80
2022/01/21 08:25:40;;;;;;;15.85;4.03;;;3.70;93.80;;;;;;5140074;27;20489;-81
2022/01/21 08:28:06;;;;;;;13.10;3.08;;;3.70;93.80;;;;;;5139712;27;20086;-80
2022/01/21 08:30:33;;;;;;;17.55;3.60;;;3.80;93.90;;;;;;5139797;27;20042;-80
2022/01/21 08:32:59;;;;;;;15.45;3.22;;;3.80;93.90;;;;;;5139830;27;20106;-80
2022/01/21 08:35:25;;;;;;;22.10;5.07;;;3.90;94.00;;;;;;5139541;27;20038;-80
2022/01/21 08:37:53;;;;;;;17.65;3.35;;;3.90;93.90;;;;;;5139785;27;20121;-79
2022/01/21 08:40:21;;;;;;;15.55;3.78;;;4.00;94.10;;;;;;5156879;27;20058;-80
2022/01/21 08:42:46;;;;;;;16.75;3.53;;;4.00;93.90;;;;;;5156683;27;20031;-81
2022/01/21 08:45:13;;;;;;;15.88;3.55;;;3.90;93.90;;;;;;5156126;27;20051;-82
2022/01/21 08:47:41;;;;;;;18.30;3.00;;;4.00;94.10;;;;;;5156795;27;20046;-82
2022/01/21 08:50:12;;;;;;;14.30;3.88;;;4.00;94.00;;;;;;5156815;27;20045;-81
2022/01/21 08:52:40;;;;;;;20.73;4.38;;;4.00;94.00;;;;;;5156998;27;20121;-81
2022/01/21 08:55:09;;;;;;;11.05;3.55;;;4.00;94.00;;;;;;5140037;27;20486;-80
2022/01/21 08:57:37;;;;;;;15.57;3.33;;;4.10;94.10;;;;;;5139693;27;20045;-80
2022/01/21 09:00:10;;;;;;;21.45;3.60;;;4.10;93.90;;;;;;5139584;27;20435;-80
2022/01/21 09:02:36;;;;;;;17.25;3.38;;;4.10;93.90;;;;;;5138008;27;20121;-81
2022/01/21 09:05:02;;;;;;;20.02;3.53;;;4.10;93.80;;;;;;5156465;27;20038;-81
2022/01/21 09:07:28;;;;;;;15.40;3.45;;;4.20;93.80;;;;;;5138637;27;20038;-80
2022/01/21 09:09:54;;;;;;;18.60;3.95;;;4.20;93.90;;;;;;5139470;27;20038;-81
2022/01/21 09:12:19;;;;;;;17.85;4.13;;;4.30;93.90;;;;;;5139288;27;20073;-80
2022/01/21 09:14:45;;;;;;;19.38;3.10;;;4.40;93.90;;;;;;5156273;27;20388;-80
2022/01/21 09:17:11;;;;;;;22.17;4.10;;;4.60;93.80;;;;;;5156929;27;20043;-81
2022/01/21 09:19:37;;;;;;;12.90;2.95;;;4.70;93.80;;;;;;5156359;27;20457;-80
2022/01/21 09:22:03;;;;;;;23.42;4.45;;;4.70;93.90;;;;;;5138998;27;20042;-81
2022/01/21 09:24:30;;;;;;;18.10;4.60;;;4.80;93.80;;;;;;5139125;27;20125;-80
2022/01/21 09:26:55;;;;;;;16.30;2.90;;;5.00;93.80;;;;;;5156303;27;20030;-80
2022/01/21 09:29:21;;;;;;;19.65;3.60;;;5.00;93.60;;;;;;5139002;27;20109;-82
2022/01/21 09:31:47;;;;;;;18.20;3.00;;;5.10;93.50;;;;;;5138779;27;20474;-80
2022/01/21 09:34:14;;;;;;;15.32;3.53;;;5.20;93.50;;;;;;5105299;27;20042;-83
2022/01/21 09:36:39;;;;;;;11.10;2.33;;;5.30;93.50;;;;;;5138569;27;20531;-82
2022/01/21 09:39:06;;;;;;;17.00;3.28;;;5.30;93.40;;;;;;5156675;27;20070;-80
2022/01/21 09:41:32;;;;;;;16.08;3.22;;;5.40;93.40;;;;;;5157071;27;20038;-79
2022/01/21 09:44:03;;;;;;;13.48;2.63;;;5.50;93.40;;;;;;5160369;27;20042;-79
2022/01/21 09:46:36;;;;;;;13.75;2.97;;;5.60;93.40;;;;;;5136025;27;20486;-80
2022/01/21 09:49:09;;;;;;;16.42;3.30;;;5.80;93.30;;;;;;5136198;27;20052;-79
2022/01/21 09:51:36;;;;;;;12.75;2.53;;;5.90;93.10;;;;;;5102383;27;20121;-80
2022/01/21 09:54:04;;;;;;;10.88;2.67;;;6.00;93.00;;;;;;5118897;27;20035;-80
2022/01/21 09:56:30;;;;;;;23.27;3.97;;;6.10;92.70;;;;;;5135308;27;20490;-80
2022/01/21 09:58:59;;;;;;;13.23;2.08;;;6.20;92.40;;;;;;5135690;27;20086;-80
2022/01/21 10:01:25;;;;;;;8.07;2.03;;;6.30;92.10;;;;;;5118317;27;20035;-80
2022/01/21 10:03:52;;;;;;;13.98;3.25;;;6.30;92.10;;;;;;5118296;27;20506;-80
2022/01/21 10:06:21;;;;;;;15.48;3.70;;;6.40;92.20;;;;;;5135488;27;20035;-81
2022/01/21 10:08:48;;;;;;;15.50;2.50;;;6.50;92.30;;;;;;5135642;27;20121;-82
2022/01/21 10:11:14;;;;;;;13.68;2.85;;;6.50;92.30;;;;;;5135559;27;20118;-80
2022/01/21 10:13:42;;;;;;;15.93;3.08;;;6.50;92.30;;;;;;5135643;27;20098;-80
2022/01/21 10:16:09;;;;;;;9.45;1.98;;;6.50;92.20;;;;;;5118786;27;20443;-81
2022/01/21 10:18:36;;;;;;;16.38;3.20;;;6.50;92.00;;;;;;5135587;27;20035;-80
2022/01/21 10:21:11;;;;;;;7.20;2.35;;;6.50;92.10;;;;;;5135178;27;20125;-81
2022/01/21 10:23:41;;;;;;;16.83;2.40;;;6.50;92.20;;;;;;5135255;27;20047;-81
2022/01/21 10:26:11;;;;;;;14.52;2.95;;;6.60;92.20;;;;;;5134876;27;20035;-80
2022/01/21 10:28:39;;;;;;;9.10;2.55;;;6.60;92.10;;;;;;5134976;27;20479;-81
2022/01/21 10:31:16;;;;;;;15.45;2.92;;;6.60;92.00;;;;;;5135025;27;20039;-81
2022/01/21 10:33:52;;;;;;;14.85;2.55;;;6.60;92.10;;;;;;5117907;27;20039;-80
2022/01/21 10:36:26;;;;;;;12.43;1.85;;;6.70;92.20;;;;;;5134963;27;20406;-79
2022/01/21 10:39:07;;;;;;;10.30;1.75;;;6.80;91.90;;;;;;5135171;27;20043;-80
2022/01/21 10:41:35;;;;;;;12.20;2.53;;;6.80;92.00;;;;;;5117915;27;20092;-81
2022/01/21 10:44:16;;;;;;;14.65;2.50;;;6.90;91.90;;;;;;5117727;27;20054;-80
2022/01/21 10:46:46;;;;;;;9.20;3.10;;;6.90;91.90;;;;;;5143064;27;20054;-81
2022/01/21 10:49:15;;;;;;;13.48;3.22;;;6.90;91.90;;;;;;5137761;27;20043;-80
2022/01/21 10:51:50;;;;;;;18.05;3.13;;;6.90;91.80;;;;;;5155345;27;20083;-80
2022/01/21 10:54:41;;;;;;;12.02;2.40;;;6.90;91.80;;;;;;5138061;27;20035;-81
2022/01/21 10:57:14;;;;;;;17.13;2.72;;;6.90;91.50;;;;;;5144062;27;20494;-79
2022/01/21 11:00:03;;;;;;;13.50;2.88;;;6.80;91.70;;;;;;5155068;27;20084;-80
2022/01/21 11:02:33;;;;;;;8.32;2.38;;;6.90;91.00;;;;;;5155075;27;20402;-79
2022/01/21 11:05:02;;;;;;;12.63;2.30;;;6.90;91.20;;;;;;5155292;27;20434;-80
2022/01/21 11:07:47;;;;;;;10.43;2.83;;;6.80;91.30;;;;;;5155456;27;20379;-80
2022/01/21 11:10:37;;;;;;;10.90;3.35;;;6.90;91.30;;;;;;5155032;27;20039;-80
2022/01/21 11:13:23;;;;;;;14.10;3.13;;;6.90;91.20;;;;;;5143081;27;20054;-80
2022/01/21 11:15:53;;;;;;;21.10;3.92;;;6.90;91.20;;;;;;5155122;27;20117;-80
2022/01/21 11:18:20;;;;;;;15.38;3.05;;;6.90;91.30;;;;;;5137326;27;20073;-80
2022/01/21 11:20:49;;;;;;;10.18;2.55;;;6.90;91.40;;;;;;5137832;27;20127;-80
2022/01/21 11:23:17;;;;;;;10.80;2.22;;;6.90;91.60;;;;;;5137555;27;20183;-79
2022/01/21 11:25:56;;;;;;;9.30;2.05;;;7.00;91.60;;;;;;5154556;27;20047;-78
2022/01/21 11:28:27;;;;;;;11.63;3.45;;;6.90;91.80;;;;;;5154762;27;20038;-79
2022/01/21 11:30:54;;;;;;;14.38;3.10;;;7.00;91.70;;;;;;5138233;27;20522;-79
2022/01/21 11:33:21;;;;;;;9.93;2.65;;;7.00;91.80;;;;;;5154607;27;20062;-79
2022/01/21 11:35:52;;;;;;;17.00;2.90;;;7.00;91.90;;;;;;5154744;27;20038;-78
2022/01/21 11:38:19;;;;;;;14.82;2.63;;;7.00;91.70;;;;;;5137064;27;20125;-78
2022/01/21 11:40:47;;;;;;;19.45;2.97;;;7.00;91.70;;;;;;5137266;27;20486;-79
2022/01/21 11:43:13;;;;;;;9.30;2.13;;;7.00;91.60;;;;;;5154205;27;20505;-81
2022/01/21 11:50:49;;;;;;;12.55;2.20;;;7.00;91.10;;;;;;5153870;27;20565;-81
2022/01/21 11:53:45;;;;;;;11.52;2.67;;;7.00;91.10;;;;;;5136707;27;20490;-79
2022/01/21 11:56:29;;;;;;;16.33;2.53;;;7.10;91.10;;;;;;5153814;27;20117;-79
2022/01/21 11:59:08;;;;;;;13.75;2.53;;;7.10;91.20;;;;;;5153824;27;20039;-80
2022/01/21 12:01:40;;;;;;;15.70;3.17;;;7.10;91.00;;;;;;5154289;27;20038;-80
2022/01/21 12:04:08;;;;;;;;;;;7.10;91.00;;;;;;5154023;27;20039;-80
2022/01/21 12:06:34;;;;;;;20.38;1.92;;;7.10;90.60;;;;;;5154283;27;20022;-80
2022/01/21 12:09:05;;;;;;;15.15;3.47;;;7.20;90.00;;;;;;5153420;27;20039;-80
2022/01/21 12:11:37;;;;;;;13.48;2.22;;;7.10;90.20;;;;;;5137085;27;20087;-80
2022/01/21 12:14:31;;;;;;;13.40;2.88;;;7.10;90.50;;;;;;5154221;27;20545;-81
2022/01/21 12:17:10;;;;;;;15.73;2.50;;;7.10;90.50;;;;;;5153475;27;20425;-81
2022/01/21 12:19:38;;;;;;;19.50;3.00;;;7.20;90.10;;;;;;5136886;27;20087;-80
2022/01/21 12:22:16;;;;;;;14.95;3.42;;;7.20;90.30;;;;;;5153387;27;20081;-80
2022/01/21 12:24:54;;;;;;;13.43;2.45;;;7.30;90.50;;;;;;5136035;27;20091;-80
2022/01/21 12:27:25;;;;;;;17.08;3.20;;;7.30;90.50;;;;;;5153781;27;20391;-80
2022/01/21 12:30:11;;;;;;;22.67;3.45;;;7.30;90.50;;;;;;5136690;27;20519;-80
2022/01/21 12:32:51;;;;;;;15.40;2.80;;;7.20;90.50;;;;;;5139144;27;20041;-79
2022/01/21 12:35:19;;;;;;;12.82;2.78;;;7.20;90.40;;;;;;5154034;27;20151;-80
2022/01/21 12:41:23;;;;;;;14.82;3.85;;;7.10;90.60;;;;;;5153809;27;20098;-79
2022/01/21 12:43:56;;;;;;;16.33;4.03;;;7.10;90.60;;;;;;5153156;27;20391;-80
2022/01/21 12:46:31;;;;;;;17.20;3.80;;;7.10;90.70;;;;;;5154927;27;20035;-80
2022/01/21 12:48:58;;;;;;;17.35;3.60;;;7.10;90.60;;;;;;5157203;27;20042;-81
2022/01/21 12:56:59;;;;;;;13.25;3.20;;;7.00;90.60;;;;;;5156067;27;20398;-80
2022/01/21 12:59:28;;;;;;;17.85;3.38;;;7.00;90.60;;;;;;5139780;27;20046;-80
2022/01/21 13:01:56;;;;;;;10.85;2.83;;;7.00;90.80;;;;;;5139463;27;20035;-80
2022/01/21 13:04:49;;;;;;;12.00;3.90;;;7.00;90.90;;;;;;5122452;27;20121;-80
2022/01/21 13:07:26;;;;;;;12.98;2.92;;;6.90;91.00;;;;;;5156452;27;20034;-79
2022/01/21 13:10:23;;;;;;;13.80;2.90;;;6.90;91.20;;;;;;5139432;27;20034;-80
2022/01/21 13:15:47;;;;;;;16.90;2.92;;;6.90;91.40;;;;;;5157215;27;20046;-81
2022/01/21 13:18:21;;;;;;;18.67;2.63;;;6.90;91.60;;;;;;5160643;27;20042;-81
2022/01/21 13:20:49;;;;;;;22.50;3.75;;;7.00;91.40;;;;;;5143444;27;20053;-80
2022/01/21 13:23:40;;;;;;;18.55;3.42;;;7.00;91.50;;;;;;5160494;27;20038;-80
2022/01/21 13:26:17;;;;;;;27.25;3.83;;;7.00;91.60;;;;;;5143289;27;20042;-81
2022/01/21 13:29:13;;;;;;;12.77;3.38;;;7.00;91.60;;;;;;5143183;27;20097;-81
2022/01/21 13:31:48;;;;;;;20.38;2.90;;;7.00;91.50;;;;;;5134379;27;20042;-80
2022/01/21 13:34:15;;;;;;;17.70;3.88;;;7.00;91.50;;;;;;5160363;27;20038;-81
2022/01/21 13:36:46;;;;;;;17.73;2.65;;;7.00;91.50;;;;;;5160042;27;20076;-81
2022/01/21 13:39:19;;;;;;;20.80;4.47;;;7.00;91.80;;;;;;5143180;27;20121;-81
2022/01/21 13:41:59;;;;;;;19.13;3.17;;;7.00;91.60;;;;;;5142762;27;20038;-82
2022/01/21 13:44:30;;;;;;;18.65;2.75;;;7.00;91.70;;;;;;5142712;27;20045;-81
2022/01/21 13:46:58;;;;;;;12.55;3.30;;;7.00;91.70;;;;;;5160214;27;20054;-81
2022/01/21 13:49:27;;;;;;;13.77;3.15;;;7.00;91.80;;;;;;5127258;27;20092;-81
2022/01/21 13:52:02;;;;;;;22.25;3.78;;;7.00;91.40;;;;;;5142917;27;20045;-81
2022/01/21 13:54:30;;;;;;;16.90;3.85;;;7.00;91.70;;;;;;5160570;27;20125;-79
2022/01/21 13:56:56;;;;;;;13.55;3.15;;;7.00;91.70;;;;;;5160150;27;20042;-80
2022/01/21 13:59:22;;;;;;;18.23;2.97;;;7.00;91.60;;;;;;5160163;27;20175;-81